KBLI

Bellingham International Airport

Bellingham, Washington, USA
KBLI 151135Z 1512/1612 17005KT P6SM SCT025 OVC050 FM152000 17010KT P6SM VCSH SCT025 BKN050 FM160000 16010KT P6SM -RA OVC030
Issued Valid From Valid To
Nov-15 @ 11:35 UTC
(an hour ago)
Nov-15 @ 12:00 UTC
(43 minutes ago)
Nov-16 @ 12:00 UTC
(in 23 hours)
Nov-15 @ 12:00 to Nov-15 @ 20:00
KBLI 151135Z 1512/1612 17005KT P6SM SCT025 OVC050
Wind Visibility Clouds
170° at 5 knots Greater than 6 miles
  • Scattered at 2,500' AGL
  • Overcast at 5,000' AGL
From Nov-15 @ 20:00 to Nov-16 @ 00:00
FM152000 17010KT P6SM VCSH SCT025 BKN050
Wind Visibility Clouds
170° at 10 knots Greater than 6 miles
  • Scattered at 2,500' AGL
  • Broken at 5,000' AGL
From Nov-16 @ 00:00 to Nov-16 @ 12:00
FM160000 16010KT P6SM -RA OVC030
Wind Visibility Clouds Conditions
160° at 10 knots Greater than 6 miles
  • Overcast at 3,000' AGL
  • Light Rain
KBLI 151135Z 1512/1612 17005KT P6SM SCT025 OVC050 FM152000 17010KT P6SM VCSH SCT025 BKN050 FM160000 16010KT P6SM -RA OVC030
Issued Nov-15 @ 11:35 UTC
(an hour ago)
Valid From Nov-15 @ 12:00 UTC
(43 minutes ago)
Valid To Nov-16 @ 12:00 UTC
(in 23 hours)
Nov-15 @ 12:00 - Nov-15 @ 20:00
Wind Visibility
170° at 5 knots Greater than 6 miles
Clouds
  • Scattered at 2,500' AGL
  • Overcast at 5,000' AGL
From Nov-15 @ 20:00 - Nov-16 @ 00:00
Wind Visibility
170° at 10 knots Greater than 6 miles
Clouds
  • Scattered at 2,500' AGL
  • Broken at 5,000' AGL
From Nov-16 @ 00:00 - Nov-16 @ 12:00
Wind Visibility
160° at 10 knots Greater than 6 miles
Clouds
  • Overcast at 3,000' AGL
Conditions
  • Light Rain